createdAt,value
2022-08-11T00:02:00.860Z,17.89
2022-08-11T00:04:34.577Z,17.90
2022-08-11T00:07:04.002Z,17.94
2022-08-11T00:09:39.454Z,17.94
2022-08-11T00:12:14.775Z,17.95
2022-08-11T00:14:42.994Z,17.94
2022-08-11T00:17:13.164Z,17.96
2022-08-11T00:20:13.044Z,17.98
2022-08-11T00:22:32.242Z,17.98
2022-08-11T00:25:08.926Z,17.99
2022-08-11T00:27:37.282Z,17.98
2022-08-11T00:30:06.588Z,17.99
2022-08-11T00:32:34.075Z,18.00
2022-08-11T00:35:51.968Z,18.00
2022-08-11T00:37:52.821Z,18.04
2022-08-11T00:40:30.467Z,18.06
2022-08-11T00:43:20.408Z,18.07
2022-08-11T00:46:11.404Z,18.09
2022-08-11T00:49:02.145Z,18.05
2022-08-11T00:51:56.761Z,18.02
2022-08-11T00:54:48.310Z,18.00
2022-08-11T00:57:37.007Z,18.00
2022-08-11T01:00:05.720Z,18.02
2022-08-11T01:02:47.711Z,18.02
2022-08-11T01:05:39.112Z,18.02
2022-08-11T01:08:35.282Z,18.03
2022-08-11T01:11:34.190Z,18.05
2022-08-11T01:14:40.236Z,18.03
2022-08-11T01:17:26.745Z,18.02
2022-08-11T01:20:45.970Z,18.00
2022-08-11T01:22:57.576Z,18.02
2022-08-11T01:25:57.157Z,18.06
2022-08-11T01:28:54.882Z,18.05
2022-08-11T01:31:36.516Z,18.03
2022-08-11T01:34:34.178Z,18.02
2022-08-11T01:37:31.675Z,18.00
2022-08-11T01:40:18.149Z,17.99
2022-08-11T01:43:02.102Z,17.97
2022-08-11T01:45:36.352Z,18.02
2022-08-11T01:48:15.697Z,18.00
2022-08-11T01:50:43.295Z,17.99
2022-08-11T01:53:39.907Z,17.99
2022-08-11T01:56:37.304Z,17.99
2022-08-11T01:59:19.138Z,17.96
2022-08-11T02:01:58.440Z,17.98
2022-08-11T02:04:47.022Z,17.99
2022-08-11T02:07:22.087Z,17.97
2022-08-11T02:10:36.554Z,17.99
2022-08-11T02:13:18.780Z,17.99
2022-08-11T02:16:13.539Z,17.97
2022-08-11T02:19:00.994Z,18.00
2022-08-11T02:21:51.432Z,18.00
2022-08-11T02:24:26.836Z,17.98
2022-08-11T02:27:07.498Z,17.99
2022-08-11T02:29:55.686Z,18.00
2022-08-11T02:32:50.655Z,18.00
2022-08-11T02:35:17.285Z,18.00
2022-08-11T02:38:00.301Z,18.02
2022-08-11T02:40:34.227Z,18.00
2022-08-11T02:43:02.071Z,17.99
2022-08-11T02:45:59.231Z,18.00
2022-08-11T02:48:56.257Z,17.98
2022-08-11T02:51:32.713Z,18.00
2022-08-11T02:54:21.558Z,17.99
2022-08-11T02:57:11.438Z,17.97
2022-08-11T02:59:53.497Z,17.96
2022-08-11T03:02:43.460Z,17.93
2022-08-11T03:05:12.117Z,17.91
2022-08-11T03:07:39.778Z,17.91
2022-08-11T03:10:29.855Z,17.91
2022-08-11T03:13:19.566Z,17.90
2022-08-11T03:16:22.150Z,17.90
2022-08-11T03:19:04.112Z,17.84
2022-08-11T03:22:03.153Z,17.84
2022-08-11T03:24:42.582Z,17.83
2022-08-11T03:27:38.279Z,17.83
2022-08-11T03:30:07.829Z,17.80
2022-08-11T03:33:11.756Z,17.79
2022-08-11T03:35:47.899Z,17.83
2022-08-11T03:38:15.917Z,17.80
2022-08-11T03:42:02.366Z,17.76
2022-08-11T03:44:31.315Z,17.54
2022-08-11T03:47:18.891Z,17.47
2022-08-11T03:50:00.751Z,17.28
2022-08-11T03:52:43.301Z,17.27
2022-08-11T03:55:27.644Z,17.14
2022-08-11T03:58:29.758Z,17.00
2022-08-11T04:01:32.521Z,16.93
2022-08-11T04:04:15.350Z,16.84
2022-08-11T04:07:05.594Z,16.77
2022-08-11T04:09:47.484Z,16.77
2022-08-11T04:12:35.915Z,16.70
2022-08-11T04:15:46.158Z,16.58
2022-08-11T04:18:48.040Z,16.53
2022-08-11T04:21:35.607Z,16.48
2022-08-11T04:24:39.524Z,16.42
2022-08-11T04:27:37.075Z,16.42
2022-08-11T04:30:33.020Z,16.43
2022-08-11T04:32:59.808Z,16.46
2022-08-11T04:35:55.223Z,16.50
2022-08-11T04:38:45.170Z,16.52
2022-08-11T04:42:06.788Z,16.55
2022-08-11T04:45:12.043Z,16.57
2022-08-11T04:48:24.548Z,16.55
2022-08-11T04:51:38.091Z,16.56
2022-08-11T04:54:28.813Z,16.56
2022-08-11T04:57:20.615Z,16.63
2022-08-11T05:00:20.864Z,16.60
2022-08-11T05:03:03.552Z,16.66
2022-08-11T05:05:54.610Z,16.66
2022-08-11T05:08:39.043Z,16.67
2022-08-11T05:11:36.239Z,16.70
2022-08-11T05:14:33.301Z,16.68
2022-08-11T05:17:24.578Z,16.74
2022-08-11T05:20:09.954Z,16.75
2022-08-11T05:22:55.173Z,16.80
2022-08-11T05:26:44.597Z,16.85
2022-08-11T05:28:50.156Z,16.94
2022-08-11T05:31:34.739Z,16.93
2022-08-11T05:34:23.961Z,16.96
2022-08-11T05:36:59.184Z,17.02
2022-08-11T05:39:59.611Z,17.10
2022-08-11T05:42:41.998Z,17.13
2022-08-11T05:45:29.329Z,17.16
2022-08-11T05:48:31.551Z,17.22
2022-08-11T05:51:16.499Z,17.26
2022-08-11T05:54:28.346Z,17.36
2022-08-11T05:56:59.993Z,17.39
2022-08-11T05:59:28.501Z,17.40
2022-08-11T06:02:02.771Z,17.38
2022-08-11T06:04:30.112Z,17.42
2022-08-11T06:06:59.743Z,17.48
2022-08-11T06:09:31.133Z,17.58
2022-08-11T06:12:01.590Z,17.60
2022-08-11T06:14:29.338Z,17.64
2022-08-11T06:16:59.867Z,17.74
2022-08-11T06:19:36.479Z,17.81
2022-08-11T06:22:05.489Z,17.88
2022-08-11T06:24:34.352Z,17.94
2022-08-11T06:27:12.271Z,17.98
2022-08-11T06:29:54.275Z,18.08
2022-08-11T06:32:25.724Z,18.11
2022-08-11T06:34:53.272Z,18.20
2022-08-11T06:37:35.817Z,18.25
2022-08-11T06:40:09.482Z,18.33
2022-08-11T06:42:45.126Z,18.41
2022-08-11T06:45:37.554Z,18.45
2022-08-11T06:48:06.643Z,18.49
2022-08-11T06:50:49.172Z,18.53
2022-08-11T06:53:19.371Z,18.60
2022-08-11T06:56:04.825Z,18.70
2022-08-11T06:58:56.356Z,18.83
2022-08-11T07:01:37.070Z,18.96
2022-08-11T07:04:08.330Z,18.99
2022-08-11T07:07:09.050Z,19.09
2022-08-11T07:10:16.448Z,19.30
2022-08-11T07:13:03.430Z,19.44
2022-08-11T07:16:12.275Z,19.54
2022-08-11T07:18:52.888Z,19.60
2022-08-11T07:22:00.873Z,19.76
2022-08-11T07:24:59.577Z,19.83
2022-08-11T07:27:51.524Z,19.99
2022-08-11T07:30:18.411Z,20.08
2022-08-11T07:32:52.872Z,20.23
2022-08-11T07:35:31.742Z,20.30
2022-08-11T07:38:05.780Z,20.44
2022-08-11T07:40:35.512Z,20.54
2022-08-11T07:43:04.180Z,20.58
2022-08-11T07:45:47.483Z,20.62
2022-08-11T07:48:31.565Z,20.72
2022-08-11T07:51:15.176Z,20.92
2022-08-11T07:54:03.077Z,20.98
2022-08-11T07:56:33.121Z,21.10
2022-08-11T07:59:57.504Z,21.17
2022-08-11T08:02:35.951Z,21.32
2022-08-11T08:05:18.159Z,21.36
2022-08-11T08:08:00.475Z,21.44
2022-08-11T08:10:43.287Z,21.55
2022-08-11T08:13:25.345Z,21.59
2022-08-11T08:16:08.900Z,21.65
2022-08-11T08:18:38.041Z,21.72
2022-08-11T08:21:14.696Z,21.86
2022-08-11T08:23:44.626Z,22.02
2022-08-11T08:26:29.977Z,21.99
2022-08-11T08:29:20.575Z,22.07
2022-08-11T08:31:49.572Z,22.19
2022-08-11T08:34:17.633Z,22.33
2022-08-11T08:36:47.489Z,22.45
2022-08-11T08:39:14.839Z,22.61
2022-08-11T08:41:43.736Z,22.63
2022-08-11T08:44:37.242Z,22.72
2022-08-11T08:47:06.111Z,22.69
2022-08-11T08:49:40.406Z,22.79
2022-08-11T08:52:25.323Z,22.91
2022-08-11T08:55:01.729Z,22.81
2022-08-11T08:57:39.122Z,23.00
2022-08-11T09:00:08.876Z,23.14
2022-08-11T09:02:39.746Z,23.23
2022-08-11T09:05:10.020Z,23.31
2022-08-11T09:07:39.567Z,23.36
2022-08-11T09:10:08.495Z,23.48
2022-08-11T09:12:38.970Z,23.55
2022-08-11T09:15:09.300Z,23.67
2022-08-11T09:17:41.249Z,23.69
2022-08-11T09:20:18.052Z,23.77
2022-08-11T09:23:54.613Z,23.81
2022-08-11T09:26:10.624Z,23.96
2022-08-11T09:28:37.726Z,23.98
2022-08-11T09:31:06.268Z,23.96
2022-08-11T09:33:33.545Z,24.02
2022-08-11T09:36:20.972Z,24.07
2022-08-11T09:39:03.770Z,24.21
2022-08-11T09:42:01.672Z,24.27
2022-08-11T09:44:33.741Z,24.35
2022-08-11T09:47:02.467Z,24.36
2022-08-11T09:49:30.165Z,24.40
2022-08-11T09:52:04.973Z,24.41
2022-08-11T09:54:32.060Z,24.47
2022-08-11T09:57:14.095Z,24.49
2022-08-11T09:59:41.499Z,24.51
2022-08-11T10:02:11.003Z,24.61
2022-08-11T10:04:42.049Z,24.67
2022-08-11T10:07:10.884Z,24.71
2022-08-11T10:10:01.445Z,24.71
2022-08-11T10:12:36.122Z,24.89
2022-08-11T10:15:23.350Z,24.79
2022-08-11T10:18:16.040Z,25.05
2022-08-11T10:20:45.229Z,25.18
2022-08-11T10:23:28.986Z,25.22
2022-08-11T10:26:12.337Z,25.28
2022-08-11T10:28:55.987Z,25.30
2022-08-11T10:31:55.448Z,25.24
2022-08-11T10:34:26.709Z,25.24
2022-08-11T10:36:57.303Z,25.26
2022-08-11T10:39:26.986Z,25.27
2022-08-11T10:42:18.280Z,25.20
2022-08-11T10:45:01.307Z,25.28
2022-08-11T10:47:35.996Z,25.33
2022-08-11T10:50:23.317Z,25.51
2022-08-11T10:53:06.636Z,25.45
2022-08-11T10:55:50.778Z,25.55
2022-08-11T10:58:33.843Z,25.67
2022-08-11T11:01:01.703Z,25.74
2022-08-11T11:03:31.064Z,25.81
2022-08-11T11:06:12.591Z,25.85
2022-08-11T11:09:09.553Z,25.85
2022-08-11T11:11:55.105Z,25.75
2022-08-11T11:14:46.210Z,25.83
2022-08-11T11:17:37.643Z,25.70
2022-08-11T11:20:06.872Z,25.69
2022-08-11T11:22:41.461Z,25.66
2022-08-11T11:25:38.586Z,25.62
2022-08-11T11:28:28.245Z,25.54
2022-08-11T11:31:15.714Z,25.47
2022-08-11T11:34:12.518Z,25.77
2022-08-11T11:36:49.440Z,25.71
2022-08-11T11:39:22.626Z,25.79
2022-08-11T11:41:53.162Z,25.70
2022-08-11T11:44:22.771Z,25.63
2022-08-11T11:46:50.957Z,25.62
2022-08-11T11:51:53.882Z,25.93
2022-08-11T11:54:24.401Z,26.14
2022-08-11T11:56:53.686Z,26.33
2022-08-11T11:59:38.471Z,26.59
2022-08-11T12:02:07.500Z,26.43
2022-08-11T12:04:42.945Z,26.33
2022-08-11T12:07:26.416Z,26.24
2022-08-11T12:09:53.912Z,26.16
2022-08-11T12:12:36.984Z,26.09
2022-08-11T12:15:05.194Z,26.03
2022-08-11T12:17:31.966Z,25.97
2022-08-11T12:19:59.040Z,26.03
2022-08-11T12:22:44.463Z,26.19
2022-08-11T12:25:26.715Z,26.13
2022-08-11T12:27:55.437Z,26.34
2022-08-11T12:30:22.867Z,26.40
2022-08-11T12:32:50.213Z,26.57
2022-08-11T12:35:17.074Z,26.61
2022-08-11T12:37:48.294Z,26.55
2022-08-11T12:40:42.518Z,26.59
2022-08-11T12:43:39.643Z,26.51
2022-08-11T12:46:12.469Z,26.45
2022-08-11T12:49:02.538Z,26.57
2022-08-11T12:52:01.432Z,26.59
2022-08-11T12:54:44.709Z,26.53
2022-08-11T12:57:36.434Z,26.68
2022-08-11T13:00:22.395Z,26.71
2022-08-11T13:03:05.150Z,26.71
2022-08-11T13:05:33.281Z,26.51
2022-08-11T13:08:08.323Z,26.66
2022-08-11T13:10:51.090Z,26.70
2022-08-11T13:13:52.587Z,26.62
2022-08-11T13:16:08.502Z,26.61
2022-08-11T13:18:35.518Z,26.76
2022-08-11T13:21:05.772Z,26.69
2022-08-11T13:23:33.048Z,26.71
2022-08-11T13:26:01.506Z,26.73
2022-08-11T13:28:28.445Z,26.59
2022-08-11T13:31:10.938Z,26.64
2022-08-11T13:33:43.512Z,26.81
2022-08-11T13:36:12.106Z,26.85
2022-08-11T13:38:43.581Z,26.99
2022-08-11T13:41:27.889Z,27.06
2022-08-11T13:43:55.932Z,26.96
2022-08-11T13:46:24.572Z,27.10
2022-08-11T13:49:00.615Z,26.95
2022-08-11T13:51:35.102Z,27.01
2022-08-11T13:54:09.041Z,27.04
2022-08-11T13:56:41.491Z,27.02
2022-08-11T13:59:09.351Z,26.97
2022-08-11T14:02:19.926Z,26.92
2022-08-11T14:04:33.660Z,27.05
2022-08-11T14:07:06.561Z,27.17
2022-08-11T14:09:37.719Z,27.22
2022-08-11T14:12:28.517Z,27.14
2022-08-11T14:15:07.573Z,27.04
2022-08-11T14:17:48.041Z,26.91
2022-08-11T14:20:40.183Z,26.86
2022-08-11T14:23:06.065Z,26.90
2022-08-11T14:26:00.790Z,26.94
2022-08-11T14:28:31.714Z,27.10
2022-08-11T14:31:03.176Z,27.10
2022-08-11T14:33:58.143Z,27.05
2022-08-11T14:36:24.235Z,27.10
2022-08-11T14:38:51.390Z,26.99
2022-08-11T14:41:34.135Z,26.93
2022-08-11T14:44:16.765Z,26.92
2022-08-11T14:46:59.302Z,27.07
2022-08-11T14:49:27.743Z,27.05
2022-08-11T14:51:57.170Z,26.88
2022-08-11T14:54:41.902Z,26.88
2022-08-11T14:57:09.672Z,26.96
2022-08-11T14:59:38.301Z,26.92
2022-08-11T15:02:21.392Z,27.13
2022-08-11T15:04:48.191Z,27.11
2022-08-11T15:07:17.205Z,27.01
2022-08-11T15:12:33.769Z,27.00
2022-08-11T15:15:17.058Z,26.88
2022-08-11T15:17:45.316Z,26.85
2022-08-11T15:20:33.469Z,26.71
2022-08-11T15:23:15.615Z,26.76
2022-08-11T15:25:46.464Z,26.67
2022-08-11T15:28:31.185Z,26.71
2022-08-11T15:31:14.792Z,26.70
2022-08-11T15:33:59.390Z,26.69
2022-08-11T15:36:44.779Z,26.66
2022-08-11T15:39:24.180Z,26.56
2022-08-11T15:42:22.086Z,26.72
2022-08-11T15:45:10.353Z,26.65
2022-08-11T15:47:44.560Z,26.57
2022-08-11T15:50:17.957Z,26.52
2022-08-11T15:52:58.414Z,26.36
2022-08-11T15:55:26.137Z,26.34
2022-08-11T15:58:10.645Z,26.57
2022-08-11T16:01:03.646Z,26.45
2022-08-11T16:04:07.769Z,26.47
2022-08-11T16:06:44.827Z,26.36
2022-08-11T16:09:18.520Z,26.19
2022-08-11T16:11:48.253Z,26.11
2022-08-11T16:14:32.941Z,26.00
2022-08-11T16:17:00.958Z,25.94
2022-08-11T16:19:34.847Z,25.96
2022-08-11T16:22:07.258Z,25.92
2022-08-11T16:27:05.883Z,25.95
2022-08-11T16:27:26.106Z,25.94
2022-08-11T16:29:55.268Z,25.97
2022-08-11T16:32:24.244Z,25.89
2022-08-11T16:35:12.989Z,25.84
2022-08-11T16:37:56.844Z,25.79
2022-08-11T16:40:24.461Z,25.78
2022-08-11T16:43:11.066Z,25.70
2022-08-11T16:45:55.776Z,25.60
2022-08-11T16:48:35.893Z,25.50
2022-08-11T16:51:07.269Z,25.46
2022-08-11T16:54:03.376Z,25.44
2022-08-11T16:56:30.150Z,25.35
2022-08-11T16:59:17.084Z,25.32
2022-08-11T17:01:53.483Z,25.28
2022-08-11T17:04:43.994Z,25.22
2022-08-11T17:07:42.453Z,25.18
2022-08-11T17:10:50.936Z,25.11
2022-08-11T17:13:25.951Z,25.10
2022-08-11T17:16:13.246Z,24.99
2022-08-11T17:19:02.908Z,24.95
2022-08-11T17:22:01.452Z,24.87
2022-08-11T17:24:31.580Z,24.85
2022-08-11T17:27:00.763Z,24.82
2022-08-11T17:29:29.362Z,24.76
2022-08-11T17:32:11.872Z,24.67
2022-08-11T17:34:57.464Z,24.70
2022-08-11T17:37:25.303Z,24.56
2022-08-11T17:39:53.949Z,24.53
2022-08-11T17:42:37.287Z,24.53
2022-08-11T17:45:21.086Z,24.44
2022-08-11T17:48:03.934Z,24.45
2022-08-11T17:50:31.225Z,24.38
2022-08-11T17:53:14.931Z,24.34
2022-08-11T17:55:58.193Z,24.30
2022-08-11T17:58:46.278Z,24.18
2022-08-11T18:01:14.171Z,24.11
2022-08-11T18:03:57.772Z,24.06
2022-08-11T18:06:32.589Z,23.98
2022-08-11T18:09:20.598Z,23.91
2022-08-11T18:12:10.683Z,23.85
2022-08-11T18:14:55.980Z,23.81
2022-08-11T18:17:38.107Z,23.77
2022-08-11T18:20:21.861Z,23.68
2022-08-11T18:23:05.448Z,23.64
2022-08-11T18:25:50.780Z,23.58
2022-08-11T18:28:38.248Z,23.51
2022-08-11T18:31:23.383Z,23.47
2022-08-11T18:34:08.424Z,23.43
2022-08-11T18:36:57.006Z,23.36
2022-08-11T18:39:40.537Z,23.29
2022-08-11T18:42:31.516Z,23.20
2022-08-11T18:45:17.728Z,23.16
2022-08-11T18:48:01.267Z,23.09
2022-08-11T18:50:44.052Z,23.03
2022-08-11T18:53:30.954Z,22.92
2022-08-11T18:56:14.808Z,22.94
2022-08-11T18:59:00.161Z,22.72
2022-08-11T19:01:46.129Z,22.54
2022-08-11T19:04:29.900Z,22.36
2022-08-11T19:07:17.369Z,22.25
2022-08-11T19:10:04.510Z,22.13
2022-08-11T19:12:55.306Z,21.97
2022-08-11T19:15:39.075Z,21.83
2022-08-11T19:18:22.706Z,21.74
2022-08-11T19:21:06.029Z,21.65
2022-08-11T19:23:51.873Z,21.63
2022-08-11T19:26:34.213Z,21.59
2022-08-11T19:30:12.036Z,21.56
2022-08-11T19:32:20.570Z,21.54
2022-08-11T19:35:03.902Z,21.48
2022-08-11T19:37:47.476Z,21.43
2022-08-11T19:40:31.089Z,21.37
2022-08-11T19:43:25.614Z,21.28
2022-08-11T19:46:12.063Z,21.24
2022-08-11T19:48:56.121Z,21.19
2022-08-11T19:51:40.076Z,21.14
2022-08-11T19:54:22.797Z,21.07
2022-08-11T19:57:05.652Z,20.99
2022-08-11T19:59:49.223Z,20.94
2022-08-11T20:02:31.829Z,20.91
2022-08-11T20:05:13.838Z,20.89
2022-08-11T20:07:56.355Z,20.82
2022-08-11T20:10:40.990Z,20.76
2022-08-11T20:13:25.076Z,20.66
2022-08-11T20:16:09.694Z,20.60
2022-08-11T20:18:53.296Z,20.39
2022-08-11T20:21:36.578Z,20.21
2022-08-11T20:24:18.922Z,20.20
2022-08-11T20:27:02.972Z,20.14
2022-08-11T20:29:50.561Z,20.13
2022-08-11T20:32:33.256Z,20.12
2022-08-11T20:35:16.572Z,20.13
2022-08-11T20:37:59.986Z,20.15
2022-08-11T20:40:43.202Z,20.17
2022-08-11T20:44:06.033Z,20.14
2022-08-11T20:46:35.522Z,20.11
2022-08-11T20:49:18.561Z,20.06
2022-08-11T20:52:06.230Z,20.05
2022-08-11T20:54:50.342Z,20.05
2022-08-11T20:57:50.474Z,20.00
2022-08-11T21:00:39.269Z,19.94
2022-08-11T21:03:35.885Z,19.91
2022-08-11T21:06:32.893Z,19.82
2022-08-11T21:09:19.939Z,19.77
2022-08-11T21:12:03.539Z,19.72
2022-08-11T21:14:49.842Z,19.69
2022-08-11T21:17:36.351Z,19.63
2022-08-11T21:20:39.145Z,19.57
2022-08-11T21:23:27.837Z,19.45
2022-08-11T21:26:17.729Z,19.38
2022-08-11T21:29:01.417Z,19.30
2022-08-11T21:31:47.035Z,19.23
2022-08-11T21:34:32.383Z,19.16
2022-08-11T21:37:16.905Z,19.08
2022-08-11T21:40:02.464Z,19.08
2022-08-11T21:42:47.783Z,19.10
2022-08-11T21:45:30.863Z,19.12
2022-08-11T21:48:13.890Z,19.15
2022-08-11T21:50:55.968Z,19.18
2022-08-11T21:53:39.028Z,19.21
2022-08-11T21:56:22.383Z,19.24
2022-08-11T21:59:09.775Z,19.25
2022-08-11T22:01:52.157Z,19.26
2022-08-11T22:04:35.684Z,19.28
2022-08-11T22:07:18.000Z,19.26
2022-08-11T22:10:00.312Z,19.28
2022-08-11T22:13:02.352Z,19.25
2022-08-11T22:15:44.341Z,19.23
2022-08-11T22:18:26.451Z,19.20
2022-08-11T22:21:09.681Z,19.21
2022-08-11T22:23:56.385Z,19.17
2022-08-11T22:26:39.656Z,19.13
2022-08-11T22:29:50.096Z,19.10
2022-08-11T22:32:27.579Z,19.05
2022-08-11T22:35:11.982Z,19.05
2022-08-11T22:37:55.024Z,19.02
2022-08-11T22:40:37.089Z,18.98
2022-08-11T22:43:19.112Z,18.94
2022-08-11T22:46:01.201Z,18.91
2022-08-11T22:48:45.764Z,18.84
2022-08-11T22:51:29.135Z,18.83
2022-08-11T22:54:12.917Z,18.83
2022-08-11T22:56:57.824Z,18.82
2022-08-11T22:59:40.367Z,18.79
2022-08-11T23:02:22.717Z,18.74
2022-08-11T23:05:05.748Z,18.71
2022-08-11T23:07:50.038Z,18.64
2022-08-11T23:10:34.196Z,18.56
2022-08-11T23:13:16.296Z,18.44
2022-08-11T23:16:04.989Z,18.07
2022-08-11T23:18:47.748Z,17.64
2022-08-11T23:21:31.110Z,17.60
2022-08-11T23:24:15.178Z,17.66
2022-08-11T23:26:57.236Z,17.68
2022-08-11T23:29:40.810Z,17.29
2022-08-11T23:32:22.880Z,17.14
2022-08-11T23:35:39.551Z,17.29
2022-08-11T23:38:14.368Z,17.33
2022-08-11T23:40:56.386Z,17.45
2022-08-11T23:43:39.762Z,17.53
2022-08-11T23:46:24.112Z,17.58
2022-08-11T23:49:11.012Z,17.63
2022-08-11T23:51:55.612Z,17.70
2022-08-11T23:54:37.762Z,17.76
2022-08-11T23:57:20.526Z,17.87
